createdAt,value
2019-06-07T00:00:29.660Z,12.69
2019-06-07T00:01:09.547Z,12.60
2019-06-07T00:02:08.460Z,12.63
2019-06-07T00:03:10.759Z,12.57
2019-06-07T00:04:10.321Z,12.56
2019-06-07T00:05:09.995Z,12.60
2019-06-07T00:06:13.174Z,12.49
2019-06-07T00:07:10.660Z,12.60
2019-06-07T00:08:17.203Z,12.51
2019-06-07T00:09:10.468Z,12.56
2019-06-07T00:10:09.384Z,12.54
2019-06-07T00:11:11.068Z,12.49
2019-06-07T00:12:10.969Z,12.49
2019-06-07T00:13:09.739Z,12.51
2019-06-07T00:14:08.693Z,12.48
2019-06-07T00:15:11.688Z,12.44
2019-06-07T00:16:11.225Z,12.49
2019-06-07T00:17:10.541Z,12.41
2019-06-07T00:18:13.519Z,12.42
2019-06-07T00:19:09.910Z,12.45
2019-06-07T00:20:11.523Z,12.44
2019-06-07T00:21:10.034Z,12.48
2019-06-07T00:22:17.541Z,12.49
2019-06-07T00:23:11.368Z,12.48
2019-06-07T00:24:09.416Z,12.44
2019-06-07T00:25:12.086Z,12.37
2019-06-07T00:26:10.732Z,12.29
2019-06-07T00:27:08.405Z,12.26
2019-06-07T00:28:08.254Z,12.26
2019-06-07T00:29:09.240Z,12.30
2019-06-07T00:30:42.234Z,12.29
2019-06-07T00:31:09.155Z,12.30
2019-06-07T00:32:19.981Z,12.34
2019-06-07T00:33:10.904Z,12.27
2019-06-07T00:35:21.021Z,12.27
2019-06-07T00:36:20.056Z,12.27
2019-06-07T00:37:22.586Z,12.30
2019-06-07T00:38:21.518Z,12.29
2019-06-07T00:39:21.907Z,12.26
2019-06-07T00:40:30.910Z,12.30
2019-06-07T00:41:20.756Z,12.31
2019-06-07T00:42:20.901Z,12.30
2019-06-07T00:43:25.263Z,12.26
2019-06-07T00:44:22.659Z,12.29
2019-06-07T00:45:25.311Z,12.24
2019-06-07T00:46:18.749Z,12.26
2019-06-07T00:47:22.745Z,12.31
2019-06-07T00:48:27.542Z,12.27
2019-06-07T00:49:32.060Z,12.24
2019-06-07T00:50:21.033Z,12.24
2019-06-07T00:51:19.614Z,12.26
2019-06-07T00:53:07.040Z,12.20
2019-06-07T00:53:28.811Z,12.23
2019-06-07T00:54:21.761Z,12.21
2019-06-07T00:55:20.035Z,12.27
2019-06-07T00:56:20.653Z,12.31
2019-06-07T00:57:19.421Z,12.19
2019-06-07T00:58:21.231Z,12.24
2019-06-07T00:59:23.585Z,12.23
2019-06-07T01:00:22.352Z,12.21
2019-06-07T01:01:22.271Z,12.29
2019-06-07T01:02:19.264Z,12.29
2019-06-07T01:03:22.014Z,12.21
2019-06-07T01:04:20.770Z,12.12
2019-06-07T01:05:22.468Z,12.21
2019-06-07T01:06:22.668Z,12.13
2019-06-07T01:07:18.791Z,12.15
2019-06-07T01:08:19.972Z,12.08
2019-06-07T01:09:22.342Z,12.05
2019-06-07T01:10:46.469Z,12.09
2019-06-07T01:11:20.717Z,12.09
2019-06-07T01:12:19.447Z,12.08
2019-06-07T01:13:19.474Z,12.09
2019-06-07T01:14:21.448Z,12.08
2019-06-07T01:15:19.815Z,12.09
2019-06-07T01:16:18.870Z,12.08
2019-06-07T01:17:28.016Z,12.05
2019-06-07T01:18:40.409Z,12.05
2019-06-07T01:19:18.876Z,12.09
2019-06-07T01:20:21.205Z,12.04
2019-06-07T01:21:20.700Z,12.05
2019-06-07T01:22:20.122Z,12.06
2019-06-07T01:23:57.949Z,12.09
2019-06-07T01:24:19.902Z,12.08
2019-06-07T01:25:18.260Z,11.93
2019-06-07T01:26:20.521Z,11.89
2019-06-07T01:27:20.288Z,11.97
2019-06-07T01:28:22.413Z,11.89
2019-06-07T01:29:20.027Z,11.85
2019-06-07T01:30:18.779Z,11.83
2019-06-07T01:31:20.606Z,11.80
2019-06-07T01:32:18.792Z,11.85
2019-06-07T01:33:18.314Z,11.82
2019-06-07T01:34:18.523Z,11.83
2019-06-07T01:35:20.223Z,11.77
2019-06-07T01:36:18.291Z,11.78
2019-06-07T01:37:19.331Z,11.78
2019-06-07T01:38:21.187Z,11.77
2019-06-07T01:39:18.804Z,11.83
2019-06-07T01:40:19.902Z,11.78
2019-06-07T01:41:18.069Z,11.80
2019-06-07T01:42:18.644Z,11.75
2019-06-07T01:43:19.379Z,11.70
2019-06-07T01:44:18.514Z,11.74
2019-06-07T01:45:19.469Z,11.77
2019-06-07T01:46:18.192Z,11.77
2019-06-07T01:47:17.820Z,11.68
2019-06-07T01:48:20.738Z,11.70
2019-06-07T01:49:17.192Z,11.75
2019-06-07T01:50:19.417Z,11.65
2019-06-07T01:51:18.949Z,11.72
2019-06-07T01:52:17.080Z,11.78
2019-06-07T01:53:21.664Z,11.70
2019-06-07T01:55:18.830Z,11.68
2019-06-07T01:56:18.486Z,11.64
2019-06-07T01:57:36.216Z,11.67
2019-06-07T01:58:19.679Z,11.61
2019-06-07T01:59:17.772Z,11.56
2019-06-07T02:00:17.444Z,11.47
2019-06-07T02:01:19.196Z,11.49
2019-06-07T02:02:17.780Z,11.52
2019-06-07T02:03:18.531Z,11.47
2019-06-07T02:04:19.173Z,11.43
2019-06-07T02:05:19.167Z,11.38
2019-06-07T02:06:18.430Z,11.44
2019-06-07T02:07:19.430Z,11.43
2019-06-07T02:08:19.976Z,11.43
2019-06-07T02:09:16.876Z,11.39
2019-06-07T02:10:16.859Z,11.43
2019-06-07T02:11:18.086Z,11.39
2019-06-07T02:12:27.976Z,11.38
2019-06-07T02:13:18.737Z,11.44
2019-06-07T02:14:16.817Z,11.39
2019-06-07T02:15:16.859Z,11.46
2019-06-07T02:16:16.794Z,11.43
2019-06-07T02:17:16.784Z,11.43
2019-06-07T02:18:16.794Z,11.52
2019-06-07T02:19:16.822Z,11.56
2019-06-07T02:20:16.753Z,11.53
2019-06-07T02:21:16.764Z,11.52
2019-06-07T02:22:16.730Z,11.50
2019-06-07T02:23:16.760Z,11.49
2019-06-07T02:24:16.730Z,11.52
2019-06-07T02:25:37.073Z,11.49
2019-06-07T02:26:17.697Z,11.52
2019-06-07T02:27:16.676Z,11.57
2019-06-07T02:28:44.737Z,11.54
2019-06-07T02:29:17.655Z,11.52
2019-06-07T02:30:40.285Z,11.49
2019-06-07T02:31:17.636Z,11.49
2019-06-07T02:32:16.644Z,11.46
2019-06-07T02:33:16.652Z,11.49
2019-06-07T02:34:16.674Z,11.46
2019-06-07T02:35:16.607Z,11.43
2019-06-07T02:36:16.586Z,11.50
2019-06-07T02:37:16.588Z,11.47
2019-06-07T02:38:16.571Z,11.46
2019-06-07T02:39:18.145Z,11.46
2019-06-07T02:40:16.551Z,11.43
2019-06-07T02:41:16.529Z,11.43
2019-06-07T02:42:16.519Z,11.38
2019-06-07T02:43:16.565Z,11.39
2019-06-07T02:44:16.529Z,11.38
2019-06-07T02:45:16.520Z,11.41
2019-06-07T02:46:28.018Z,11.43
2019-06-07T02:47:17.469Z,11.43
2019-06-07T02:48:16.470Z,11.38
2019-06-07T02:49:16.501Z,11.38
2019-06-07T02:50:16.433Z,11.35
2019-06-07T02:51:16.426Z,11.41
2019-06-07T02:52:16.417Z,11.38
2019-06-07T02:53:16.415Z,11.43
2019-06-07T02:54:16.410Z,11.38
2019-06-07T02:55:16.469Z,11.41
2019-06-07T02:56:56.215Z,11.41
2019-06-07T02:57:17.407Z,11.36
2019-06-07T02:58:16.351Z,11.36
2019-06-07T02:59:16.482Z,11.34
2019-06-07T03:00:41.535Z,11.20
2019-06-07T03:01:17.334Z,11.34
2019-06-07T03:02:16.307Z,11.28
2019-06-07T03:03:16.295Z,11.32
2019-06-07T03:04:17.045Z,11.17
2019-06-07T03:05:16.304Z,11.21
2019-06-07T03:06:16.264Z,11.16
2019-06-07T03:07:16.258Z,11.16
2019-06-07T03:08:16.303Z,11.14
2019-06-07T03:09:16.354Z,11.16
2019-06-07T03:10:16.222Z,11.17
2019-06-07T03:11:16.210Z,11.11
2019-06-07T03:12:16.200Z,11.13
2019-06-07T03:13:16.190Z,11.07
2019-06-07T03:14:16.203Z,10.98
2019-06-07T03:15:32.713Z,11.06
2019-06-07T03:16:17.174Z,11.01
2019-06-07T03:17:16.150Z,10.95
2019-06-07T03:18:16.148Z,10.95
2019-06-07T03:19:16.154Z,11.01
2019-06-07T03:20:16.114Z,10.96
2019-06-07T03:21:16.128Z,10.94
2019-06-07T03:22:16.098Z,10.94
2019-06-07T03:23:16.099Z,10.88
2019-06-07T03:24:16.134Z,10.96
2019-06-07T03:25:16.065Z,10.95
2019-06-07T03:26:16.063Z,10.92
2019-06-07T03:27:35.019Z,10.92
2019-06-07T03:28:17.027Z,10.86
2019-06-07T03:29:16.018Z,10.83
2019-06-07T03:30:38.594Z,10.89
2019-06-07T03:31:17.000Z,10.89
2019-06-07T03:32:15.988Z,10.96
2019-06-07T03:33:15.981Z,10.88
2019-06-07T03:34:15.964Z,10.89
2019-06-07T03:35:15.983Z,10.88
2019-06-07T03:36:23.791Z,10.92
2019-06-07T03:37:16.933Z,10.92
2019-06-07T03:38:15.921Z,11.02
2019-06-07T03:39:15.927Z,10.98
2019-06-07T03:40:15.982Z,10.96
2019-06-07T03:41:15.887Z,10.95
2019-06-07T03:42:15.880Z,10.95
2019-06-07T03:43:15.875Z,10.99
2019-06-07T03:44:15.873Z,10.96
2019-06-07T03:45:15.873Z,10.95
2019-06-07T03:46:15.857Z,10.91
2019-06-07T03:47:15.826Z,10.98
2019-06-07T03:48:15.833Z,11.03
2019-06-07T03:49:15.834Z,10.96
2019-06-07T03:50:15.825Z,10.95
2019-06-07T03:51:24.712Z,10.94
2019-06-07T03:52:16.770Z,10.96
2019-06-07T03:53:15.763Z,10.94
2019-06-07T03:54:15.761Z,10.94
2019-06-07T03:55:15.767Z,10.98
2019-06-07T03:56:16.084Z,10.92
2019-06-07T03:57:15.718Z,10.84
2019-06-07T03:58:31.622Z,10.84
2019-06-07T03:59:16.700Z,10.95
2019-06-07T04:00:16.662Z,10.98
2019-06-07T04:01:15.691Z,10.81
2019-06-07T04:02:15.709Z,10.80
2019-06-07T04:03:32.841Z,10.80
2019-06-07T04:04:16.643Z,10.95
2019-06-07T04:05:15.653Z,10.91
2019-06-07T04:06:15.634Z,10.91
2019-06-07T04:07:15.626Z,10.94
2019-06-07T04:08:15.602Z,10.84
2019-06-07T04:09:15.590Z,10.80
2019-06-07T04:10:15.632Z,10.86
2019-06-07T04:11:15.569Z,10.80
2019-06-07T04:12:15.582Z,10.77
2019-06-07T04:13:15.559Z,10.71
2019-06-07T04:14:15.551Z,10.74
2019-06-07T04:15:15.562Z,10.74
2019-06-07T04:16:15.530Z,10.80
2019-06-07T04:17:15.546Z,10.83
2019-06-07T04:18:15.509Z,10.81
2019-06-07T04:19:15.501Z,10.86
2019-06-07T04:20:15.490Z,10.83
2019-06-07T04:21:15.528Z,10.91
2019-06-07T04:22:15.464Z,10.86
2019-06-07T04:23:27.616Z,10.91
2019-06-07T04:24:16.438Z,10.94
2019-06-07T04:25:15.423Z,10.89
2019-06-07T04:26:15.438Z,10.98
2019-06-07T04:27:15.407Z,11.01
2019-06-07T04:28:15.392Z,11.09
2019-06-07T04:29:47.345Z,11.11
2019-06-07T04:30:16.393Z,11.17
2019-06-07T04:31:15.381Z,11.10
2019-06-07T04:32:15.354Z,11.19
2019-06-07T04:33:15.341Z,11.19
2019-06-07T04:34:15.341Z,11.24
2019-06-07T04:35:15.316Z,11.25
2019-06-07T04:36:15.409Z,11.36
2019-06-07T04:37:15.292Z,11.39
2019-06-07T04:38:15.313Z,11.31
2019-06-07T04:39:15.271Z,11.36
2019-06-07T04:40:15.484Z,11.41
2019-06-07T04:41:15.276Z,11.36
2019-06-07T04:42:15.250Z,11.41
2019-06-07T04:43:15.232Z,11.53
2019-06-07T04:44:15.219Z,11.46
2019-06-07T04:45:33.065Z,11.49
2019-06-07T04:46:16.240Z,11.57
2019-06-07T04:47:15.199Z,11.39
2019-06-07T04:48:15.175Z,11.56
2019-06-07T04:49:15.279Z,11.49
2019-06-07T04:50:18.182Z,11.53
2019-06-07T04:51:15.319Z,11.47
2019-06-07T04:52:15.166Z,11.34
2019-06-07T04:53:15.141Z,11.62
2019-06-07T04:54:15.115Z,11.57
2019-06-07T04:55:15.115Z,11.50
2019-06-07T04:56:15.090Z,11.50
2019-06-07T04:57:15.105Z,11.64
2019-06-07T04:58:15.072Z,11.62
2019-06-07T05:00:00.414Z,11.59
2019-06-07T05:00:46.743Z,11.54
2019-06-07T05:01:26.675Z,11.68
2019-06-07T05:02:16.046Z,11.71
2019-06-07T05:03:15.073Z,11.67
2019-06-07T05:04:15.029Z,11.64
2019-06-07T05:05:14.997Z,11.71
2019-06-07T05:06:15.018Z,11.68
2019-06-07T05:07:14.993Z,11.65
2019-06-07T05:08:27.360Z,11.56
2019-06-07T05:09:15.975Z,11.67
2019-06-07T05:10:14.943Z,11.68
2019-06-07T05:11:14.969Z,11.64
2019-06-07T05:12:14.968Z,11.72
2019-06-07T05:13:14.909Z,11.78
2019-06-07T05:14:14.899Z,11.89
2019-06-07T05:15:14.937Z,11.86
2019-06-07T05:16:14.878Z,11.99
2019-06-07T05:17:14.867Z,11.93
2019-06-07T05:18:14.883Z,11.96
2019-06-07T05:19:14.867Z,11.87
2019-06-07T05:20:16.034Z,11.83
2019-06-07T05:21:14.824Z,11.83
2019-06-07T05:22:14.813Z,11.96
2019-06-07T05:23:59.482Z,12.11
2019-06-07T05:24:15.800Z,12.08
2019-06-07T05:25:14.783Z,12.08
2019-06-07T05:26:14.830Z,12.02
2019-06-07T05:27:14.763Z,11.93
2019-06-07T05:28:14.772Z,11.86
2019-06-07T05:29:14.769Z,11.94
2019-06-07T05:30:51.205Z,11.90
2019-06-07T05:31:15.733Z,11.97
2019-06-07T05:32:14.714Z,12.08
2019-06-07T05:33:14.715Z,12.09
2019-06-07T05:34:14.686Z,12.15
2019-06-07T05:35:14.695Z,12.11
2019-06-07T05:36:14.734Z,12.09
2019-06-07T05:37:14.663Z,12.16
2019-06-07T05:38:14.662Z,12.23
2019-06-07T05:39:14.633Z,12.29
2019-06-07T05:40:14.717Z,12.16
2019-06-07T05:41:14.611Z,12.26
2019-06-07T05:42:14.611Z,12.31
2019-06-07T05:43:14.674Z,12.30
2019-06-07T05:44:15.181Z,12.23
2019-06-07T05:45:22.114Z,12.30
2019-06-07T05:46:14.609Z,12.30
2019-06-07T05:47:14.571Z,12.30
2019-06-07T05:48:14.538Z,12.39
2019-06-07T05:49:14.545Z,12.42
2019-06-07T05:50:38.640Z,12.46
2019-06-07T05:51:15.514Z,12.48
2019-06-07T05:52:14.510Z,12.48
2019-06-07T05:53:14.485Z,12.56
2019-06-07T05:54:14.492Z,12.63
2019-06-07T05:55:14.464Z,12.64
2019-06-07T05:56:15.370Z,12.57
2019-06-07T05:57:14.441Z,12.62
2019-06-07T05:58:14.432Z,12.69
2019-06-07T05:59:14.451Z,12.74
2019-06-07T06:00:14.464Z,12.82
2019-06-07T06:01:42.162Z,12.84
2019-06-07T06:02:22.674Z,12.87
2019-06-07T06:03:15.383Z,13.02
2019-06-07T06:04:14.384Z,13.06
2019-06-07T06:05:32.657Z,13.18
2019-06-07T06:06:15.348Z,13.21
2019-06-07T06:07:14.340Z,13.17
2019-06-07T06:08:14.359Z,13.24
2019-06-07T06:09:14.432Z,13.32
2019-06-07T06:10:14.317Z,13.47
2019-06-07T06:11:14.299Z,13.54
2019-06-07T06:12:33.436Z,13.56
2019-06-07T06:13:15.278Z,13.69
2019-06-07T06:14:14.269Z,13.74
2019-06-07T06:15:14.286Z,13.87
2019-06-07T06:16:14.259Z,13.83
2019-06-07T06:17:14.239Z,13.91
2019-06-07T06:18:14.222Z,14.06
2019-06-07T06:19:14.209Z,14.01
2019-06-07T06:20:14.224Z,14.06
2019-06-07T06:21:19.317Z,14.10
2019-06-07T06:22:15.177Z,14.10
2019-06-07T06:23:14.274Z,14.12
2019-06-07T06:24:14.156Z,14.20
2019-06-07T06:25:31.804Z,14.28
2019-06-07T06:26:15.139Z,14.29
2019-06-07T06:27:55.232Z,14.37
2019-06-07T06:28:16.214Z,14.44
2019-06-07T06:29:14.866Z,14.57
2019-06-07T06:30:14.146Z,14.57
2019-06-07T06:31:14.081Z,14.56
2019-06-07T06:32:40.986Z,14.54
2019-06-07T06:33:30.626Z,14.57
2019-06-07T06:34:15.045Z,14.61
2019-06-07T06:35:14.067Z,14.67
2019-06-07T06:36:14.041Z,14.72
2019-06-07T06:37:14.019Z,14.68
2019-06-07T06:38:14.005Z,14.75
2019-06-07T06:39:13.999Z,14.80
2019-06-07T06:40:14.016Z,14.84
2019-06-07T06:41:16.354Z,14.72
2019-06-07T06:42:13.962Z,14.86
2019-06-07T06:43:13.952Z,14.78
2019-06-07T06:44:13.945Z,14.88
2019-06-07T06:45:13.945Z,14.94
2019-06-07T06:46:13.948Z,14.93
2019-06-07T06:47:13.910Z,15.02
2019-06-07T06:48:13.900Z,14.98
2019-06-07T06:49:13.924Z,15.03
2019-06-07T06:50:13.892Z,15.02
2019-06-07T06:51:13.917Z,15.13
2019-06-07T06:52:13.857Z,15.26
2019-06-07T06:53:13.848Z,15.36
2019-06-07T06:54:13.874Z,15.42
2019-06-07T06:55:13.823Z,15.52
2019-06-07T06:56:13.835Z,15.63
2019-06-07T06:57:19.484Z,15.60
2019-06-07T06:58:14.815Z,15.61
2019-06-07T06:59:37.432Z,15.63
2019-06-07T07:00:14.771Z,15.68
2019-06-07T07:01:13.781Z,15.78
2019-06-07T07:02:13.754Z,15.85
2019-06-07T07:04:14.734Z,16.03
2019-06-07T07:05:13.723Z,16.14
2019-06-07T07:06:25.973Z,16.16
2019-06-07T07:07:14.710Z,16.11
2019-06-07T07:08:13.689Z,16.23
2019-06-07T07:09:13.677Z,16.33
2019-06-07T07:10:13.792Z,16.30
2019-06-07T07:11:13.656Z,16.42
2019-06-07T07:12:15.102Z,16.48
2019-06-07T07:13:13.638Z,16.44
2019-06-07T07:14:13.625Z,16.44
2019-06-07T07:15:13.621Z,16.41
2019-06-07T07:16:13.600Z,16.34
2019-06-07T07:17:13.613Z,16.31
2019-06-07T07:18:13.585Z,16.45
2019-06-07T07:19:13.572Z,16.35
2019-06-07T07:20:14.184Z,16.23
2019-06-07T07:21:13.553Z,16.22
2019-06-07T07:22:13.572Z,16.25
2019-06-07T07:23:13.532Z,16.34
2019-06-07T07:24:21.613Z,16.45
2019-06-07T07:25:14.512Z,16.53
2019-06-07T07:26:13.496Z,16.55
2019-06-07T07:27:13.504Z,16.52
2019-06-07T07:28:13.493Z,16.65
2019-06-07T07:29:13.466Z,16.71
2019-06-07T07:31:14.449Z,16.88
2019-06-07T07:32:13.453Z,16.95
2019-06-07T07:33:13.445Z,17.03
2019-06-07T07:34:32.594Z,17.17
2019-06-07T07:35:14.406Z,17.18
2019-06-07T07:36:35.140Z,17.30
2019-06-07T07:37:14.410Z,17.28
2019-06-07T07:38:13.368Z,17.15
2019-06-07T07:39:13.360Z,17.18
2019-06-07T07:40:55.384Z,17.22
2019-06-07T07:41:15.801Z,17.28
2019-06-07T07:42:20.889Z,17.29
2019-06-07T07:43:14.312Z,17.32
2019-06-07T07:44:13.303Z,17.32
2019-06-07T07:45:13.351Z,17.46
2019-06-07T07:46:29.166Z,17.50
2019-06-07T07:47:14.308Z,17.50
2019-06-07T07:48:17.862Z,17.57
2019-06-07T07:49:14.247Z,17.55
2019-06-07T07:50:13.239Z,17.63
2019-06-07T07:51:13.259Z,17.63
2019-06-07T07:52:13.232Z,17.73
2019-06-07T07:53:13.289Z,17.59
2019-06-07T07:54:13.316Z,17.66
2019-06-07T07:55:13.218Z,17.73
2019-06-07T07:56:13.178Z,17.63
2019-06-07T07:57:13.187Z,17.63
2019-06-07T07:58:13.157Z,17.46
2019-06-07T07:59:13.151Z,17.48
2019-06-07T08:00:49.326Z,17.53
2019-06-07T08:01:14.128Z,17.55
2019-06-07T08:02:13.110Z,17.78
2019-06-07T08:03:13.116Z,17.74
2019-06-07T08:04:13.088Z,17.94
2019-06-07T08:05:22.473Z,18.03
2019-06-07T08:06:14.068Z,17.87
2019-06-07T08:07:13.058Z,17.95
2019-06-07T08:08:13.066Z,18.00
2019-06-07T08:09:13.412Z,18.13
2019-06-07T08:10:13.025Z,18.10
2019-06-07T08:11:13.101Z,18.15
2019-06-07T08:12:13.021Z,18.28
2019-06-07T08:13:24.956Z,18.33
2019-06-07T08:14:14.009Z,18.42
2019-06-07T08:15:12.973Z,18.55
2019-06-07T08:16:16.677Z,18.46
2019-06-07T08:17:13.947Z,18.40
2019-06-07T08:18:12.978Z,18.36
2019-06-07T08:19:13.203Z,18.44
2019-06-07T08:20:12.918Z,18.52
2019-06-07T08:21:24.366Z,18.64
2019-06-07T08:22:13.904Z,18.74
2019-06-07T08:23:12.906Z,18.65
2019-06-07T08:24:12.881Z,18.61
2019-06-07T08:25:12.884Z,18.65
2019-06-07T08:26:12.854Z,18.72
2019-06-07T08:27:25.868Z,18.73
2019-06-07T08:28:13.849Z,18.74
2019-06-07T08:29:12.833Z,18.74
2019-06-07T08:30:46.497Z,18.80
2019-06-07T08:31:13.861Z,18.90
2019-06-07T08:32:12.830Z,18.86
2019-06-07T08:33:26.175Z,18.99
2019-06-07T08:34:13.763Z,19.01
2019-06-07T08:36:01.574Z,18.98
2019-06-07T08:36:21.788Z,19.02
2019-06-07T08:37:13.731Z,19.17
2019-06-07T08:38:26.391Z,19.31
2019-06-07T08:39:13.711Z,19.38
2019-06-07T08:40:12.723Z,19.39
2019-06-07T08:41:12.948Z,19.43
2019-06-07T08:42:21.160Z,19.51
2019-06-07T08:43:20.619Z,19.61
2019-06-07T08:44:23.266Z,19.69
2019-06-07T08:45:13.647Z,19.76
2019-06-07T08:46:12.635Z,19.70
2019-06-07T08:47:20.665Z,19.83
2019-06-07T08:48:27.456Z,19.84
2019-06-07T08:49:13.676Z,20.00
2019-06-07T08:50:12.598Z,20.02
2019-06-07T08:51:12.595Z,20.06
2019-06-07T08:52:12.771Z,20.18
2019-06-07T08:53:12.738Z,20.24
2019-06-07T08:54:22.504Z,20.18
2019-06-07T08:55:13.544Z,20.20
2019-06-07T08:56:12.531Z,20.12
2019-06-07T08:57:21.488Z,20.18
2019-06-07T08:58:13.515Z,19.95
2019-06-07T08:59:12.550Z,19.83
2019-06-07T09:00:41.892Z,19.94
2019-06-07T09:01:13.492Z,20.02
2019-06-07T09:02:23.314Z,20.15
2019-06-07T09:03:13.479Z,20.25
2019-06-07T09:04:12.459Z,20.25
2019-06-07T09:05:12.790Z,20.28
2019-06-07T09:07:01.078Z,20.06
2019-06-07T09:07:19.459Z,20.03
2019-06-07T09:08:29.295Z,20.20
2019-06-07T09:09:13.413Z,20.25
2019-06-07T09:10:14.438Z,20.30
2019-06-07T09:11:12.381Z,20.38
2019-06-07T09:12:12.420Z,20.27
2019-06-07T09:13:12.353Z,20.41
2019-06-07T09:14:12.363Z,20.59
2019-06-07T09:15:21.604Z,20.54
2019-06-07T09:16:13.318Z,20.46
2019-06-07T09:17:12.905Z,20.58
2019-06-07T09:19:13.309Z,20.34
2019-06-07T09:20:35.075Z,20.43
2019-06-07T09:21:13.264Z,20.42
2019-06-07T09:22:12.249Z,20.64
2019-06-07T09:23:17.354Z,20.71
2019-06-07T09:24:13.229Z,20.79
2019-06-07T09:26:18.052Z,20.90
2019-06-07T09:27:13.282Z,20.91
2019-06-07T09:28:18.730Z,20.89
2019-06-07T09:29:13.183Z,20.98
2019-06-07T09:30:18.394Z,20.86
2019-06-07T09:31:13.253Z,20.90
2019-06-07T09:32:18.237Z,20.71
2019-06-07T09:33:13.135Z,20.59
2019-06-07T09:34:15.254Z,20.38
2019-06-07T09:35:17.238Z,20.21
2019-06-07T09:36:13.754Z,20.30
2019-06-07T09:38:02.950Z,20.39
2019-06-07T09:38:24.836Z,20.50
2019-06-07T09:39:13.071Z,20.42
2019-06-07T09:40:25.059Z,20.47
2019-06-07T09:41:13.049Z,20.66
2019-06-07T09:42:12.810Z,20.89
2019-06-07T09:44:00.143Z,20.86
2019-06-07T09:44:23.769Z,20.91
2019-06-07T09:45:14.152Z,20.95
2019-06-07T09:46:15.696Z,21.13
2019-06-07T09:47:30.289Z,21.23
2019-06-07T09:48:16.560Z,21.35
2019-06-07T09:49:30.345Z,21.29
2019-06-07T09:50:13.064Z,21.14
2019-06-07T09:51:19.390Z,21.19
2019-06-07T09:52:12.966Z,21.19
2019-06-07T09:53:22.023Z,21.19
2019-06-07T09:55:02.308Z,21.26
2019-06-07T09:55:23.734Z,21.36
2019-06-07T09:56:14.757Z,21.53
2019-06-07T09:57:17.410Z,21.56
2019-06-07T09:59:13.250Z,21.59
2019-06-07T10:00:39.012Z,21.64
2019-06-07T10:01:13.996Z,21.61
2019-06-07T10:02:13.746Z,21.74
2019-06-07T10:03:20.601Z,21.72
2019-06-07T10:04:30.308Z,21.67
2019-06-07T10:05:14.323Z,21.59
2019-06-07T10:06:13.688Z,21.51
2019-06-07T10:07:28.536Z,21.50
2019-06-07T10:08:54.147Z,21.56
2019-06-07T10:11:12.760Z,21.56
2019-06-07T10:12:11.745Z,21.63
2019-06-07T10:13:11.771Z,21.71
2019-06-07T10:14:11.714Z,21.71
2019-06-07T10:15:11.719Z,21.91
2019-06-07T10:16:11.730Z,22.12
2019-06-07T10:17:11.702Z,22.19
2019-06-07T10:18:11.783Z,22.29
2019-06-07T10:19:11.672Z,22.32
2019-06-07T10:20:11.640Z,22.49
2019-06-07T10:21:15.221Z,22.53
2019-06-07T10:22:11.621Z,22.47
2019-06-07T10:23:11.611Z,22.57
2019-06-07T10:24:11.633Z,22.52
2019-06-07T10:25:11.677Z,22.44
2019-06-07T10:26:11.616Z,22.43
2019-06-07T10:27:11.572Z,22.50
2019-06-07T10:28:11.553Z,22.52
2019-06-07T10:29:11.555Z,22.49
2019-06-07T10:30:11.536Z,22.59
2019-06-07T10:31:11.572Z,22.59
2019-06-07T10:32:11.653Z,22.69
2019-06-07T10:33:11.626Z,22.82
2019-06-07T10:34:11.489Z,22.80
2019-06-07T10:35:15.443Z,22.78
2019-06-07T10:36:11.495Z,22.87
2019-06-07T10:37:15.195Z,22.86
2019-06-07T10:38:11.510Z,22.92
2019-06-07T10:39:11.497Z,22.89
2019-06-07T10:40:11.463Z,22.96
2019-06-07T10:41:11.470Z,22.89
2019-06-07T10:42:11.749Z,22.89
2019-06-07T10:43:14.375Z,22.93
2019-06-07T10:44:11.535Z,23.08
2019-06-07T10:45:12.347Z,23.17
2019-06-07T10:46:12.103Z,23.19
2019-06-07T10:47:12.313Z,23.14
2019-06-07T10:48:11.773Z,23.26
2019-06-07T10:49:12.190Z,23.20
2019-06-07T10:50:12.242Z,23.26
2019-06-07T10:51:14.196Z,23.24
2019-06-07T10:52:11.694Z,23.24
2019-06-07T10:53:12.480Z,23.35
2019-06-07T10:54:24.685Z,23.31
2019-06-07T10:55:12.701Z,23.31
2019-06-07T10:56:11.268Z,23.27
2019-06-07T10:57:13.891Z,23.31
2019-06-07T10:58:11.275Z,23.53
2019-06-07T10:59:11.895Z,23.57
2019-06-07T11:00:11.766Z,23.31
2019-06-07T11:01:12.861Z,23.12
2019-06-07T11:02:11.893Z,23.22
2019-06-07T11:03:11.841Z,23.19
2019-06-07T11:04:11.726Z,23.29
2019-06-07T11:05:12.340Z,23.45
2019-06-07T11:06:12.130Z,23.49
2019-06-07T11:07:12.052Z,23.46
2019-06-07T11:08:13.146Z,23.29
2019-06-07T11:09:12.043Z,23.24
2019-06-07T11:10:15.597Z,23.40
2019-06-07T11:11:12.330Z,23.43
2019-06-07T11:12:12.467Z,23.29
2019-06-07T11:13:12.387Z,23.38
2019-06-07T11:14:12.387Z,23.39
2019-06-07T11:15:11.195Z,23.49
2019-06-07T11:16:11.266Z,23.43
2019-06-07T11:17:11.370Z,23.46
2019-06-07T11:18:12.572Z,23.57
2019-06-07T11:19:14.467Z,23.76
2019-06-07T11:20:12.494Z,23.47
2019-06-07T11:21:12.159Z,23.57
2019-06-07T11:22:12.309Z,23.71
2019-06-07T11:23:12.278Z,23.75
2019-06-07T11:24:12.282Z,23.72
2019-06-07T11:25:11.658Z,23.79
2019-06-07T11:26:12.368Z,23.86
2019-06-07T11:27:11.675Z,23.97
2019-06-07T11:28:12.224Z,24.10
2019-06-07T11:29:11.387Z,24.12
2019-06-07T11:30:10.905Z,24.19
2019-06-07T11:31:11.172Z,24.22
2019-06-07T11:32:10.897Z,24.31
2019-06-07T11:33:13.338Z,24.32
2019-06-07T11:34:10.898Z,24.35
2019-06-07T11:35:11.924Z,24.17
2019-06-07T11:36:10.859Z,24.16
2019-06-07T11:37:11.627Z,24.22
2019-06-07T11:38:10.838Z,24.27
2019-06-07T11:39:11.157Z,24.22
2019-06-07T11:40:27.889Z,24.22
2019-06-07T11:41:11.797Z,24.14
2019-06-07T11:42:12.066Z,24.22
2019-06-07T11:43:10.862Z,24.27
2019-06-07T11:44:12.864Z,24.17
2019-06-07T11:45:12.735Z,24.14
2019-06-07T11:46:11.002Z,24.26
2019-06-07T11:47:12.372Z,24.23
2019-06-07T11:48:11.350Z,24.13
2019-06-07T11:49:10.933Z,24.05
2019-06-07T11:50:11.734Z,24.02
2019-06-07T11:51:10.929Z,23.86
2019-06-07T11:52:11.394Z,23.79
2019-06-07T11:53:10.826Z,23.77
2019-06-07T11:54:12.019Z,23.72
2019-06-07T11:55:11.576Z,23.72
2019-06-07T11:56:11.848Z,23.67
2019-06-07T11:57:13.319Z,23.55
2019-06-07T11:58:14.385Z,23.50
2019-06-07T11:59:13.379Z,23.34
2019-06-07T12:00:11.456Z,23.42
2019-06-07T12:01:11.844Z,23.45
2019-06-07T12:02:11.445Z,23.53
2019-06-07T12:03:11.555Z,23.61
2019-06-07T12:04:11.561Z,23.53
2019-06-07T12:05:14.872Z,23.46
2019-06-07T12:06:12.049Z,23.53
2019-06-07T12:07:13.389Z,23.68
2019-06-07T12:08:10.496Z,23.80
2019-06-07T12:09:10.688Z,23.55
2019-06-07T12:10:10.856Z,23.67
2019-06-07T12:11:10.469Z,23.76
2019-06-07T12:12:10.453Z,23.97
2019-06-07T12:13:10.476Z,24.16
2019-06-07T12:14:10.954Z,24.17
2019-06-07T12:15:11.005Z,24.41
2019-06-07T12:16:11.214Z,24.38
2019-06-07T12:17:11.245Z,24.38
2019-06-07T12:18:11.233Z,24.64
2019-06-07T12:19:11.824Z,24.60
2019-06-07T12:20:11.304Z,24.68
2019-06-07T12:21:11.518Z,24.73
2019-06-07T12:22:11.650Z,24.88
2019-06-07T12:23:11.918Z,24.98
2019-06-07T12:24:10.449Z,24.90
2019-06-07T12:25:10.598Z,25.07
2019-06-07T12:26:10.325Z,25.17
2019-06-07T12:27:10.379Z,25.16
2019-06-07T12:28:10.667Z,25.25
2019-06-07T12:29:10.731Z,25.43
2019-06-07T12:30:18.149Z,25.44
2019-06-07T12:31:11.260Z,25.64
2019-06-07T12:32:13.313Z,25.62
2019-06-07T12:33:11.298Z,25.64
2019-06-07T12:34:11.264Z,25.64
2019-06-07T12:35:11.462Z,25.37
2019-06-07T12:36:11.473Z,25.35
2019-06-07T12:37:11.633Z,25.32
2019-06-07T12:38:10.198Z,25.28
2019-06-07T12:39:10.182Z,25.35
2019-06-07T12:40:10.282Z,25.50
2019-06-07T12:41:10.177Z,25.52
2019-06-07T12:42:10.150Z,25.61
2019-06-07T12:43:10.147Z,25.64
2019-06-07T12:44:10.838Z,25.67
2019-06-07T12:45:10.379Z,25.82
2019-06-07T12:46:14.583Z,25.91
2019-06-07T12:47:11.102Z,25.89
2019-06-07T12:48:10.102Z,25.61
2019-06-07T12:49:10.078Z,25.67
2019-06-07T12:50:10.084Z,25.61
2019-06-07T12:51:10.055Z,25.74
2019-06-07T12:52:13.700Z,25.77
2019-06-07T12:53:11.114Z,25.94
2019-06-07T12:54:10.025Z,25.93
2019-06-07T12:55:10.044Z,26.02
2019-06-07T12:56:10.003Z,25.97
2019-06-07T12:57:10.015Z,25.99
2019-06-07T12:58:09.981Z,26.09
2019-06-07T12:59:09.973Z,25.98
2019-06-07T13:00:10.017Z,25.87
2019-06-07T13:01:09.970Z,25.64